Terminal Aerodrome Forecast
Issued by NWS Charleston, WV

Current Version | Previous Version | Graphics & Text | Print | Product List | Glossary On
Versions: 1 2 3 4 5 6 7 8 9 10 11 12 13 14 15 16 17 18 19 20 21 22 23 24 25 26 27 28 29
483
FTUS41 KRLX 120537
TAFBKW
TAF
KBKW 120537Z 1206/1306 18011KT P6SM SCT100
     FM121100 27013G20KT P6SM OVC045
     FM121400 29014G24KT P6SM -SHSN OVC015
     FM121600 29014G25KT 3SM -SHSN BLSN BKN008 BKN015
     FM130200 29016G32KT 5SM -SHSN BKN025=

USA.gov is the U.S. government's official web portal to all federal, state and local government web resources and services.